sensor_id;sensor_type;location;lat;lon;timestamp;temperature;humidity
6375;DHT22;35400;45.472;-122.822;2023-03-14T00:01:44;8.50;99.90
6375;DHT22;35400;45.472;-122.822;2023-03-14T00:04:11;8.50;99.90
6375;DHT22;35400;45.472;-122.822;2023-03-14T00:06:39;8.50;99.90
6375;DHT22;35400;45.472;-122.822;2023-03-14T00:09:06;8.50;99.90
6375;DHT22;35400;45.472;-122.822;2023-03-14T00:11:33;8.50;99.90
6375;DHT22;35400;45.472;-122.822;2023-03-14T00:14:00;8.50;99.90
6375;DHT22;35400;45.472;-122.822;2023-03-14T00:16:27;8.50;99.90
6375;DHT22;35400;45.472;-122.822;2023-03-14T00:18:54;8.40;99.90
6375;DHT22;35400;45.472;-122.822;2023-03-14T00:21:21;8.40;99.90
6375;DHT22;35400;45.472;-122.822;2023-03-14T00:23:48;8.40;99.90
6375;DHT22;35400;45.472;-122.822;2023-03-14T00:26:17;8.40;99.90
6375;DHT22;35400;45.472;-122.822;2023-03-14T00:28:44;8.40;99.90
6375;DHT22;35400;45.472;-122.822;2023-03-14T00:31:14;8.50;99.90
6375;DHT22;35400;45.472;-122.822;2023-03-14T00:33:42;8.50;99.90
6375;DHT22;35400;45.472;-122.822;2023-03-14T00:36:12;8.50;99.90
6375;DHT22;35400;45.472;-122.822;2023-03-14T00:38:40;8.40;99.90
6375;DHT22;35400;45.472;-122.822;2023-03-14T00:41:12;8.40;99.90
6375;DHT22;35400;45.472;-122.822;2023-03-14T00:43:41;8.30;99.90
6375;DHT22;35400;45.472;-122.822;2023-03-14T00:46:08;8.10;99.90
6375;DHT22;35400;45.472;-122.822;2023-03-14T00:48:35;8.00;99.90
6375;DHT22;35400;45.472;-122.822;2023-03-14T00:51:03;7.90;99.90
6375;DHT22;35400;45.472;-122.822;2023-03-14T00:53:30;7.90;99.90
6375;DHT22;35400;45.472;-122.822;2023-03-14T00:56:02;7.80;99.90
6375;DHT22;35400;45.472;-122.822;2023-03-14T00:58:29;7.90;99.90
6375;DHT22;35400;45.472;-122.822;2023-03-14T01:00:56;7.90;99.90
6375;DHT22;35400;45.472;-122.822;2023-03-14T01:03:24;7.90;99.90
6375;DHT22;35400;45.472;-122.822;2023-03-14T01:05:51;7.90;99.90
6375;DHT22;35400;45.472;-122.822;2023-03-14T01:08:18;7.80;99.90
6375;DHT22;35400;45.472;-122.822;2023-03-14T01:10:45;7.80;99.90
6375;DHT22;35400;45.472;-122.822;2023-03-14T01:13:12;7.70;99.90
6375;DHT22;35400;45.472;-122.822;2023-03-14T01:15:39;7.60;99.90
6375;DHT22;35400;45.472;-122.822;2023-03-14T01:18:06;7.60;99.90
6375;DHT22;35400;45.472;-122.822;2023-03-14T01:20:33;7.50;99.90
6375;DHT22;35400;45.472;-122.822;2023-03-14T01:23:00;7.40;99.90
6375;DHT22;35400;45.472;-122.822;2023-03-14T01:25:27;7.30;99.90
6375;DHT22;35400;45.472;-122.822;2023-03-14T01:27:54;7.20;99.90
6375;DHT22;35400;45.472;-122.822;2023-03-14T01:30:21;7.20;99.90
6375;DHT22;35400;45.472;-122.822;2023-03-14T01:32:48;7.10;99.90
6375;DHT22;35400;45.472;-122.822;2023-03-14T01:35:15;7.00;99.90
6375;DHT22;35400;45.472;-122.822;2023-03-14T01:37:42;6.90;99.90
6375;DHT22;35400;45.472;-122.822;2023-03-14T01:40:14;6.80;99.90
6375;DHT22;35400;45.472;-122.822;2023-03-14T01:42:56;6.70;99.90
6375;DHT22;35400;45.472;-122.822;2023-03-14T01:48:28;6.60;99.90
6375;DHT22;35400;45.472;-122.822;2023-03-14T01:50:59;6.50;99.90
6375;DHT22;35400;45.472;-122.822;2023-03-14T01:53:27;6.40;99.90
6375;DHT22;35400;45.472;-122.822;2023-03-14T01:55:55;6.30;99.90
6375;DHT22;35400;45.472;-122.822;2023-03-14T01:58:25;6.30;99.90
6375;DHT22;35400;45.472;-122.822;2023-03-14T02:00:55;6.20;99.90
6375;DHT22;35400;45.472;-122.822;2023-03-14T02:03:24;6.20;99.90
6375;DHT22;35400;45.472;-122.822;2023-03-14T02:05:54;6.10;99.90
6375;DHT22;35400;45.472;-122.822;2023-03-14T02:08:23;6.10;99.90
6375;DHT22;35400;45.472;-122.822;2023-03-14T02:10:54;6.00;99.90
6375;DHT22;35400;45.472;-122.822;2023-03-14T02:13:44;6.00;99.90
6375;DHT22;35400;45.472;-122.822;2023-03-14T02:16:45;6.00;99.90
6375;DHT22;35400;45.472;-122.822;2023-03-14T02:22:35;5.90;99.90
6375;DHT22;35400;45.472;-122.822;2023-03-14T02:27:48;5.80;99.90
6375;DHT22;35400;45.472;-122.822;2023-03-14T02:30:19;5.80;99.90
6375;DHT22;35400;45.472;-122.822;2023-03-14T02:32:53;5.70;99.90
6375;DHT22;35400;45.472;-122.822;2023-03-14T02:35:32;5.70;99.90
6375;DHT22;35400;45.472;-122.822;2023-03-14T02:40:38;5.60;99.90
6375;DHT22;35400;45.472;-122.822;2023-03-14T02:43:05;5.50;99.90
6375;DHT22;35400;45.472;-122.822;2023-03-14T02:45:39;5.50;99.90
6375;DHT22;35400;45.472;-122.822;2023-03-14T02:48:11;5.40;99.90
6375;DHT22;35400;45.472;-122.822;2023-03-14T02:50:40;5.40;99.90
6375;DHT22;35400;45.472;-122.822;2023-03-14T02:53:07;5.30;99.90
6375;DHT22;35400;45.472;-122.822;2023-03-14T02:55:34;5.30;99.90
6375;DHT22;35400;45.472;-122.822;2023-03-14T02:58:06;5.20;99.90
6375;DHT22;35400;45.472;-122.822;2023-03-14T03:00:34;5.20;99.90
6375;DHT22;35400;45.472;-122.822;2023-03-14T03:03:04;5.10;99.90
6375;DHT22;35400;45.472;-122.822;2023-03-14T03:05:33;5.10;99.90
6375;DHT22;35400;45.472;-122.822;2023-03-14T03:08:00;5.10;99.90
6375;DHT22;35400;45.472;-122.822;2023-03-14T03:10:27;5.00;99.90
6375;DHT22;35400;45.472;-122.822;2023-03-14T03:12:54;5.00;99.90
6375;DHT22;35400;45.472;-122.822;2023-03-14T03:15:26;5.00;99.90
6375;DHT22;35400;45.472;-122.822;2023-03-14T03:20:20;5.00;99.90
6375;DHT22;35400;45.472;-122.822;2023-03-14T03:22:47;4.90;99.90
6375;DHT22;35400;45.472;-122.822;2023-03-14T03:25:16;5.00;99.90
6375;DHT22;35400;45.472;-122.822;2023-03-14T03:27:45;4.90;99.90
6375;DHT22;35400;45.472;-122.822;2023-03-14T03:30:14;5.00;99.90
6375;DHT22;35400;45.472;-122.822;2023-03-14T03:32:41;4.90;99.90
6375;DHT22;35400;45.472;-122.822;2023-03-14T03:35:08;4.90;99.90
6375;DHT22;35400;45.472;-122.822;2023-03-14T03:37:38;4.90;99.90
6375;DHT22;35400;45.472;-122.822;2023-03-14T03:40:07;4.90;99.90
6375;DHT22;35400;45.472;-122.822;2023-03-14T03:42:35;4.90;99.90
6375;DHT22;35400;45.472;-122.822;2023-03-14T03:45:04;4.90;99.90
6375;DHT22;35400;45.472;-122.822;2023-03-14T03:47:33;4.90;99.90
6375;DHT22;35400;45.472;-122.822;2023-03-14T03:50:00;4.90;99.90
6375;DHT22;35400;45.472;-122.822;2023-03-14T03:52:27;4.90;99.90
6375;DHT22;35400;45.472;-122.822;2023-03-14T03:54:54;4.80;99.90
6375;DHT22;35400;45.472;-122.822;2023-03-14T03:57:21;4.80;99.90
6375;DHT22;35400;45.472;-122.822;2023-03-14T03:59:50;4.80;99.90
6375;DHT22;35400;45.472;-122.822;2023-03-14T04:02:16;4.80;99.90
6375;DHT22;35400;45.472;-122.822;2023-03-14T04:04:43;4.80;99.90
6375;DHT22;35400;45.472;-122.822;2023-03-14T04:07:11;4.80;99.90
6375;DHT22;35400;45.472;-122.822;2023-03-14T04:09:40;4.80;99.90
6375;DHT22;35400;45.472;-122.822;2023-03-14T04:12:27;4.80;99.90
6375;DHT22;35400;45.472;-122.822;2023-03-14T04:15:02;4.80;99.90
6375;DHT22;35400;45.472;-122.822;2023-03-14T04:17:30;4.80;99.90
6375;DHT22;35400;45.472;-122.822;2023-03-14T04:19:57;4.80;99.90
6375;DHT22;35400;45.472;-122.822;2023-03-14T04:22:32;4.80;99.90
6375;DHT22;35400;45.472;-122.822;2023-03-14T04:25:00;4.80;99.90
6375;DHT22;35400;45.472;-122.822;2023-03-14T04:27:32;4.70;99.90
6375;DHT22;35400;45.472;-122.822;2023-03-14T04:30:00;4.70;99.90
6375;DHT22;35400;45.472;-122.822;2023-03-14T04:32:46;4.70;99.90
6375;DHT22;35400;45.472;-122.822;2023-03-14T04:35:13;4.70;99.90
6375;DHT22;35400;45.472;-122.822;2023-03-14T04:37:40;4.70;99.90
6375;DHT22;35400;45.472;-122.822;2023-03-14T04:40:11;4.70;99.90
6375;DHT22;35400;45.472;-122.822;2023-03-14T04:42:38;4.70;99.90
6375;DHT22;35400;45.472;-122.822;2023-03-14T04:45:06;4.70;99.90
6375;DHT22;35400;45.472;-122.822;2023-03-14T04:47:34;4.70;99.90
6375;DHT22;35400;45.472;-122.822;2023-03-14T04:50:02;4.70;99.90
6375;DHT22;35400;45.472;-122.822;2023-03-14T04:52:28;4.70;99.90
6375;DHT22;35400;45.472;-122.822;2023-03-14T04:54:56;4.70;99.90
6375;DHT22;35400;45.472;-122.822;2023-03-14T04:57:25;4.70;99.90
6375;DHT22;35400;45.472;-122.822;2023-03-14T04:59:52;4.70;99.90
6375;DHT22;35400;45.472;-122.822;2023-03-14T05:02:42;4.70;99.90
6375;DHT22;35400;45.472;-122.822;2023-03-14T05:05:38;4.70;99.90
6375;DHT22;35400;45.472;-122.822;2023-03-14T05:08:28;4.70;99.90
6375;DHT22;35400;45.472;-122.822;2023-03-14T05:11:21;4.70;99.90
6375;DHT22;35400;45.472;-122.822;2023-03-14T05:14:05;4.70;99.90
6375;DHT22;35400;45.472;-122.822;2023-03-14T05:16:50;4.80;99.90
6375;DHT22;35400;45.472;-122.822;2023-03-14T05:19:32;4.70;99.90
6375;DHT22;35400;45.472;-122.822;2023-03-14T05:22:25;4.70;99.90
6375;DHT22;35400;45.472;-122.822;2023-03-14T05:25:17;4.70;99.90
6375;DHT22;35400;45.472;-122.822;2023-03-14T05:28:03;4.70;99.90
6375;DHT22;35400;45.472;-122.822;2023-03-14T05:30:55;4.70;99.90
6375;DHT22;35400;45.472;-122.822;2023-03-14T05:33:48;4.70;99.90
6375;DHT22;35400;45.472;-122.822;2023-03-14T05:36:35;4.70;99.90
6375;DHT22;35400;45.472;-122.822;2023-03-14T05:39:34;4.60;99.90
6375;DHT22;35400;45.472;-122.822;2023-03-14T05:42:39;4.60;99.90
6375;DHT22;35400;45.472;-122.822;2023-03-14T05:45:26;4.60;99.90
6375;DHT22;35400;45.472;-122.822;2023-03-14T05:48:13;4.60;99.90
6375;DHT22;35400;45.472;-122.822;2023-03-14T05:51:00;4.50;99.90
6375;DHT22;35400;45.472;-122.822;2023-03-14T05:53:38;4.50;99.90
6375;DHT22;35400;45.472;-122.822;2023-03-14T05:56:31;4.50;99.90
6375;DHT22;35400;45.472;-122.822;2023-03-14T05:59:17;4.50;99.90
6375;DHT22;35400;45.472;-122.822;2023-03-14T06:02:02;4.50;99.90
6375;DHT22;35400;45.472;-122.822;2023-03-14T06:04:37;4.40;99.90
6375;DHT22;35400;45.472;-122.822;2023-03-14T06:07:05;4.40;99.90
6375;DHT22;35400;45.472;-122.822;2023-03-14T06:09:31;4.40;99.90
6375;DHT22;35400;45.472;-122.822;2023-03-14T06:12:01;4.40;99.90
6375;DHT22;35400;45.472;-122.822;2023-03-14T06:14:32;4.40;99.90
6375;DHT22;35400;45.472;-122.822;2023-03-14T06:17:00;4.30;99.90
6375;DHT22;35400;45.472;-122.822;2023-03-14T06:19:30;4.30;99.90
6375;DHT22;35400;45.472;-122.822;2023-03-14T06:21:56;4.30;99.90
6375;DHT22;35400;45.472;-122.822;2023-03-14T06:24:25;4.30;99.90
6375;DHT22;35400;45.472;-122.822;2023-03-14T06:26:53;4.30;99.90
6375;DHT22;35400;45.472;-122.822;2023-03-14T06:29:20;4.20;99.90
6375;DHT22;35400;45.472;-122.822;2023-03-14T06:31:47;4.20;99.90
6375;DHT22;35400;45.472;-122.822;2023-03-14T06:34:16;4.20;99.90
6375;DHT22;35400;45.472;-122.822;2023-03-14T06:36:43;4.10;99.90
6375;DHT22;35400;45.472;-122.822;2023-03-14T06:39:10;4.10;99.90
6375;DHT22;35400;45.472;-122.822;2023-03-14T06:41:41;4.10;99.90
6375;DHT22;35400;45.472;-122.822;2023-03-14T06:44:10;4.10;99.90
6375;DHT22;35400;45.472;-122.822;2023-03-14T06:46:37;4.10;99.90
6375;DHT22;35400;45.472;-122.822;2023-03-14T06:49:04;4.10;99.90
6375;DHT22;35400;45.472;-122.822;2023-03-14T06:51:33;4.10;99.90
6375;DHT22;35400;45.472;-122.822;2023-03-14T06:54:04;4.10;99.90
6375;DHT22;35400;45.472;-122.822;2023-03-14T06:56:30;4.10;99.90
6375;DHT22;35400;45.472;-122.822;2023-03-14T06:58:58;4.20;99.90
6375;DHT22;35400;45.472;-122.822;2023-03-14T07:01:30;4.20;99.90
6375;DHT22;35400;45.472;-122.822;2023-03-14T07:04:07;4.20;99.90
6375;DHT22;35400;45.472;-122.822;2023-03-14T07:06:37;4.20;99.90
6375;DHT22;35400;45.472;-122.822;2023-03-14T07:09:06;4.20;99.90
6375;DHT22;35400;45.472;-122.822;2023-03-14T07:11:36;4.30;99.90
6375;DHT22;35400;45.472;-122.822;2023-03-14T07:14:03;4.30;99.90
6375;DHT22;35400;45.472;-122.822;2023-03-14T07:16:30;4.30;99.90
6375;DHT22;35400;45.472;-122.822;2023-03-14T07:18:58;4.30;99.90
6375;DHT22;35400;45.472;-122.822;2023-03-14T07:21:25;4.30;99.90
6375;DHT22;35400;45.472;-122.822;2023-03-14T07:23:52;4.40;99.90
6375;DHT22;35400;45.472;-122.822;2023-03-14T07:26:19;4.40;99.90
6375;DHT22;35400;45.472;-122.822;2023-03-14T07:28:50;4.40;99.90
6375;DHT22;35400;45.472;-122.822;2023-03-14T07:31:19;4.40;99.90
6375;DHT22;35400;45.472;-122.822;2023-03-14T07:33:46;4.40;99.90
6375;DHT22;35400;45.472;-122.822;2023-03-14T07:36:14;4.40;99.90
6375;DHT22;35400;45.472;-122.822;2023-03-14T07:38:43;4.30;99.90
6375;DHT22;35400;45.472;-122.822;2023-03-14T07:41:30;4.30;99.90
6375;DHT22;35400;45.472;-122.822;2023-03-14T07:44:17;4.30;99.90
6375;DHT22;35400;45.472;-122.822;2023-03-14T07:46:43;4.20;99.90
6375;DHT22;35400;45.472;-122.822;2023-03-14T07:49:10;4.20;99.90
6375;DHT22;35400;45.472;-122.822;2023-03-14T07:51:37;4.20;99.90
6375;DHT22;35400;45.472;-122.822;2023-03-14T07:54:04;4.10;99.90
6375;DHT22;35400;45.472;-122.822;2023-03-14T07:56:31;4.10;99.90
6375;DHT22;35400;45.472;-122.822;2023-03-14T07:58:58;4.10;99.90
6375;DHT22;35400;45.472;-122.822;2023-03-14T08:01:25;4.10;99.90
6375;DHT22;35400;45.472;-122.822;2023-03-14T08:03:51;4.00;99.90
6375;DHT22;35400;45.472;-122.822;2023-03-14T08:06:19;4.00;99.90
6375;DHT22;35400;45.472;-122.822;2023-03-14T08:08:45;4.00;99.90
6375;DHT22;35400;45.472;-122.822;2023-03-14T08:11:13;3.90;99.90
6375;DHT22;35400;45.472;-122.822;2023-03-14T08:13:39;3.90;99.90
6375;DHT22;35400;45.472;-122.822;2023-03-14T08:16:07;3.90;99.90
6375;DHT22;35400;45.472;-122.822;2023-03-14T08:18:33;3.80;99.90
6375;DHT22;35400;45.472;-122.822;2023-03-14T08:21:00;3.80;99.90
6375;DHT22;35400;45.472;-122.822;2023-03-14T08:23:27;3.80;99.90
6375;DHT22;35400;45.472;-122.822;2023-03-14T08:25:54;3.70;99.90
6375;DHT22;35400;45.472;-122.822;2023-03-14T08:28:21;3.70;99.90
6375;DHT22;35400;45.472;-122.822;2023-03-14T08:30:48;3.70;99.90
6375;DHT22;35400;45.472;-122.822;2023-03-14T08:33:15;3.60;99.90
6375;DHT22;35400;45.472;-122.822;2023-03-14T08:35:42;3.60;99.90
6375;DHT22;35400;45.472;-122.822;2023-03-14T08:38:09;3.50;99.90
6375;DHT22;35400;45.472;-122.822;2023-03-14T08:40:36;3.50;99.90
6375;DHT22;35400;45.472;-122.822;2023-03-14T08:43:02;3.40;99.90
6375;DHT22;35400;45.472;-122.822;2023-03-14T08:45:29;3.40;99.90
6375;DHT22;35400;45.472;-122.822;2023-03-14T08:47:57;3.40;99.90
6375;DHT22;35400;45.472;-122.822;2023-03-14T08:50:25;3.30;99.90
6375;DHT22;35400;45.472;-122.822;2023-03-14T08:52:52;3.30;99.90
6375;DHT22;35400;45.472;-122.822;2023-03-14T08:55:19;3.30;99.90
6375;DHT22;35400;45.472;-122.822;2023-03-14T08:57:46;3.30;99.90
6375;DHT22;35400;45.472;-122.822;2023-03-14T09:00:13;3.30;99.90
6375;DHT22;35400;45.472;-122.822;2023-03-14T09:02:44;3.30;99.90
6375;DHT22;35400;45.472;-122.822;2023-03-14T09:05:11;3.30;99.90
6375;DHT22;35400;45.472;-122.822;2023-03-14T09:07:39;3.30;99.90
6375;DHT22;35400;45.472;-122.822;2023-03-14T09:10:07;3.20;99.90
6375;DHT22;35400;45.472;-122.822;2023-03-14T09:12:35;3.30;99.90
6375;DHT22;35400;45.472;-122.822;2023-03-14T09:15:03;3.30;99.90
6375;DHT22;35400;45.472;-122.822;2023-03-14T09:17:30;3.30;99.90
6375;DHT22;35400;45.472;-122.822;2023-03-14T09:19:57;3.30;99.90
6375;DHT22;35400;45.472;-122.822;2023-03-14T09:22:24;3.40;99.90
6375;DHT22;35400;45.472;-122.822;2023-03-14T09:24:51;3.40;99.90
6375;DHT22;35400;45.472;-122.822;2023-03-14T09:27:17;3.40;99.90
6375;DHT22;35400;45.472;-122.822;2023-03-14T09:29:44;3.50;99.90
6375;DHT22;35400;45.472;-122.822;2023-03-14T09:32:11;3.50;99.90
6375;DHT22;35400;45.472;-122.822;2023-03-14T09:34:38;3.50;99.90
6375;DHT22;35400;45.472;-122.822;2023-03-14T09:37:05;3.50;99.90
6375;DHT22;35400;45.472;-122.822;2023-03-14T09:39:32;3.60;99.90
6375;DHT22;35400;45.472;-122.822;2023-03-14T09:42:02;3.60;99.90
6375;DHT22;35400;45.472;-122.822;2023-03-14T09:44:34;3.60;99.90
6375;DHT22;35400;45.472;-122.822;2023-03-14T09:47:06;3.60;99.90
6375;DHT22;35400;45.472;-122.822;2023-03-14T09:49:36;3.60;99.90
6375;DHT22;35400;45.472;-122.822;2023-03-14T09:52:14;3.70;99.90
6375;DHT22;35400;45.472;-122.822;2023-03-14T09:54:49;3.70;99.90
6375;DHT22;35400;45.472;-122.822;2023-03-14T09:57:23;3.70;99.90
6375;DHT22;35400;45.472;-122.822;2023-03-14T09:59:53;3.70;99.90
6375;DHT22;35400;45.472;-122.822;2023-03-14T10:02:26;3.70;99.90
6375;DHT22;35400;45.472;-122.822;2023-03-14T10:04:55;3.70;99.90
6375;DHT22;35400;45.472;-122.822;2023-03-14T10:07:31;3.80;99.90
6375;DHT22;35400;45.472;-122.822;2023-03-14T10:09:59;3.80;99.90
6375;DHT22;35400;45.472;-122.822;2023-03-14T10:12:36;3.80;99.90
6375;DHT22;35400;45.472;-122.822;2023-03-14T10:15:11;3.80;99.90
6375;DHT22;35400;45.472;-122.822;2023-03-14T10:17:50;3.80;99.90
6375;DHT22;35400;45.472;-122.822;2023-03-14T10:23:23;3.80;99.90
6375;DHT22;35400;45.472;-122.822;2023-03-14T10:26:08;3.80;99.90
6375;DHT22;35400;45.472;-122.822;2023-03-14T10:28:45;3.80;99.90
6375;DHT22;35400;45.472;-122.822;2023-03-14T10:31:24;3.80;99.90
6375;DHT22;35400;45.472;-122.822;2023-03-14T10:34:01;3.80;99.90
6375;DHT22;35400;45.472;-122.822;2023-03-14T10:36:30;3.80;99.90
6375;DHT22;35400;45.472;-122.822;2023-03-14T10:41:53;3.80;99.90
6375;DHT22;35400;45.472;-122.822;2023-03-14T10:44:23;3.80;99.90
6375;DHT22;35400;45.472;-122.822;2023-03-14T10:47:03;3.80;99.90
6375;DHT22;35400;45.472;-122.822;2023-03-14T10:49:33;3.80;99.90
6375;DHT22;35400;45.472;-122.822;2023-03-14T10:54:39;3.80;99.90
6375;DHT22;35400;45.472;-122.822;2023-03-14T10:57:07;3.80;99.90
6375;DHT22;35400;45.472;-122.822;2023-03-14T10:59:37;3.80;99.90
6375;DHT22;35400;45.472;-122.822;2023-03-14T11:08:31;3.80;99.90
6375;DHT22;35400;45.472;-122.822;2023-03-14T11:11:26;3.80;99.90
6375;DHT22;35400;45.472;-122.822;2023-03-14T11:22:49;3.70;99.90
6375;DHT22;35400;45.472;-122.822;2023-03-14T11:25:21;3.70;99.90
6375;DHT22;35400;45.472;-122.822;2023-03-14T11:28:00;3.70;99.90
6375;DHT22;35400;45.472;-122.822;2023-03-14T11:33:20;3.50;99.90
6375;DHT22;35400;45.472;-122.822;2023-03-14T11:36:09;3.50;99.90
6375;DHT22;35400;45.472;-122.822;2023-03-14T11:38:50;3.40;99.90
6375;DHT22;35400;45.472;-122.822;2023-03-14T11:41:38;3.40;99.90
6375;DHT22;35400;45.472;-122.822;2023-03-14T11:47:05;3.20;99.90
6375;DHT22;35400;45.472;-122.822;2023-03-14T11:57:44;3.00;99.90
6375;DHT22;35400;45.472;-122.822;2023-03-14T12:00:17;3.00;99.90
6375;DHT22;35400;45.472;-122.822;2023-03-14T12:08:58;2.90;99.90
6375;DHT22;35400;45.472;-122.822;2023-03-14T12:11:40;2.80;99.90
6375;DHT22;35400;45.472;-122.822;2023-03-14T12:14:22;2.80;99.90
6375;DHT22;35400;45.472;-122.822;2023-03-14T12:16:54;2.70;99.90
6375;DHT22;35400;45.472;-122.822;2023-03-14T12:19:29;2.70;99.90
6375;DHT22;35400;45.472;-122.822;2023-03-14T12:24:29;2.70;99.90
6375;DHT22;35400;45.472;-122.822;2023-03-14T12:26:59;2.60;99.90
6375;DHT22;35400;45.472;-122.822;2023-03-14T12:29:26;2.60;99.90
6375;DHT22;35400;45.472;-122.822;2023-03-14T12:34:44;2.60;99.90
6375;DHT22;35400;45.472;-122.822;2023-03-14T12:37:25;2.60;99.90
6375;DHT22;35400;45.472;-122.822;2023-03-14T12:42:51;2.60;99.90
6375;DHT22;35400;45.472;-122.822;2023-03-14T12:45:32;2.60;99.90
6375;DHT22;35400;45.472;-122.822;2023-03-14T12:50:42;2.60;99.90
6375;DHT22;35400;45.472;-122.822;2023-03-14T12:53:24;2.60;99.90
6375;DHT22;35400;45.472;-122.822;2023-03-14T13:05:34;2.50;99.90
6375;DHT22;35400;45.472;-122.822;2023-03-14T13:12:41;2.30;99.90
6375;DHT22;35400;45.472;-122.822;2023-03-14T13:15:22;2.30;99.90
6375;DHT22;35400;45.472;-122.822;2023-03-14T13:17:51;2.20;99.90
6375;DHT22;35400;45.472;-122.822;2023-03-14T13:20:33;2.20;99.90
6375;DHT22;35400;45.472;-122.822;2023-03-14T13:23:01;2.10;99.90
6375;DHT22;35400;45.472;-122.822;2023-03-14T13:25:35;2.10;99.90
6375;DHT22;35400;45.472;-122.822;2023-03-14T13:28:03;2.00;99.90
6375;DHT22;35400;45.472;-122.822;2023-03-14T13:30:40;2.00;99.90
6375;DHT22;35400;45.472;-122.822;2023-03-14T13:33:17;1.90;99.90
6375;DHT22;35400;45.472;-122.822;2023-03-14T13:35:46;1.90;99.90
6375;DHT22;35400;45.472;-122.822;2023-03-14T13:38:20;1.80;99.90
6375;DHT22;35400;45.472;-122.822;2023-03-14T13:40:49;1.80;99.90
6375;DHT22;35400;45.472;-122.822;2023-03-14T13:46:15;1.70;99.90
6375;DHT22;35400;45.472;-122.822;2023-03-14T13:48:55;1.70;99.90
6375;DHT22;35400;45.472;-122.822;2023-03-14T13:51:23;1.60;99.90
6375;DHT22;35400;45.472;-122.822;2023-03-14T13:53:53;1.60;99.90
6375;DHT22;35400;45.472;-122.822;2023-03-14T13:56:23;1.50;99.90
6375;DHT22;35400;45.472;-122.822;2023-03-14T13:58:50;1.50;99.90
6375;DHT22;35400;45.472;-122.822;2023-03-14T14:04:06;1.40;99.90
6375;DHT22;35400;45.472;-122.822;2023-03-14T14:06:38;1.40;99.90
6375;DHT22;35400;45.472;-122.822;2023-03-14T14:09:21;1.30;99.90
6375;DHT22;35400;45.472;-122.822;2023-03-14T14:15:01;1.20;99.90
6375;DHT22;35400;45.472;-122.822;2023-03-14T14:17:52;1.20;99.90
6375;DHT22;35400;45.472;-122.822;2023-03-14T14:20:36;1.10;99.90
6375;DHT22;35400;45.472;-122.822;2023-03-14T14:23:07;1.10;99.90
6375;DHT22;35400;45.472;-122.822;2023-03-14T14:25:36;1.10;99.90
6375;DHT22;35400;45.472;-122.822;2023-03-14T14:28:30;1.00;99.90
6375;DHT22;35400;45.472;-122.822;2023-03-14T14:33:42;1.00;99.90
6375;DHT22;35400;45.472;-122.822;2023-03-14T14:41:30;0.90;99.90
6375;DHT22;35400;45.472;-122.822;2023-03-14T14:43:58;0.90;99.90
6375;DHT22;35400;45.472;-122.822;2023-03-14T14:46:28;0.90;99.90
6375;DHT22;35400;45.472;-122.822;2023-03-14T14:49:01;0.90;99.90
6375;DHT22;35400;45.472;-122.822;2023-03-14T14:51:33;0.90;99.90
6375;DHT22;35400;45.472;-122.822;2023-03-14T14:54:32;0.90;99.90
6375;DHT22;35400;45.472;-122.822;2023-03-14T14:56:53;0.90;99.90
6375;DHT22;35400;45.472;-122.822;2023-03-14T14:59:28;1.00;99.90
6375;DHT22;35400;45.472;-122.822;2023-03-14T15:02:00;1.00;99.90
6375;DHT22;35400;45.472;-122.822;2023-03-14T15:04:30;1.00;99.90
6375;DHT22;35400;45.472;-122.822;2023-03-14T15:06:58;1.10;99.90
6375;DHT22;35400;45.472;-122.822;2023-03-14T15:09:25;1.10;99.90
6375;DHT22;35400;45.472;-122.822;2023-03-14T15:11:52;1.10;99.90
6375;DHT22;35400;45.472;-122.822;2023-03-14T15:14:18;1.20;99.90
6375;DHT22;35400;45.472;-122.822;2023-03-14T15:16:45;1.30;99.90
6375;DHT22;35400;45.472;-122.822;2023-03-14T15:19:24;1.30;99.90
6375;DHT22;35400;45.472;-122.822;2023-03-14T15:21:52;1.40;99.90
6375;DHT22;35400;45.472;-122.822;2023-03-14T15:24:19;1.50;99.90
6375;DHT22;35400;45.472;-122.822;2023-03-14T15:26:46;1.60;99.90
6375;DHT22;35400;45.472;-122.822;2023-03-14T15:29:13;1.60;99.90
6375;DHT22;35400;45.472;-122.822;2023-03-14T15:31:41;1.70;99.90
6375;DHT22;35400;45.472;-122.822;2023-03-14T15:34:10;1.90;99.90
6375;DHT22;35400;45.472;-122.822;2023-03-14T15:36:37;2.00;99.90
6375;DHT22;35400;45.472;-122.822;2023-03-14T15:39:06;2.20;99.90
6375;DHT22;35400;45.472;-122.822;2023-03-14T15:41:33;2.40;99.90
6375;DHT22;35400;45.472;-122.822;2023-03-14T15:44:00;2.60;99.90
6375;DHT22;35400;45.472;-122.822;2023-03-14T15:46:27;2.80;99.90
6375;DHT22;35400;45.472;-122.822;2023-03-14T15:48:54;3.10;99.90
6375;DHT22;35400;45.472;-122.822;2023-03-14T15:51:21;3.40;99.90
6375;DHT22;35400;45.472;-122.822;2023-03-14T15:53:48;3.60;99.90
6375;DHT22;35400;45.472;-122.822;2023-03-14T15:56:17;3.80;99.90
6375;DHT22;35400;45.472;-122.822;2023-03-14T15:58:45;4.00;99.90
6375;DHT22;35400;45.472;-122.822;2023-03-14T16:01:15;4.10;99.90
6375;DHT22;35400;45.472;-122.822;2023-03-14T16:03:43;4.20;99.90
6375;DHT22;35400;45.472;-122.822;2023-03-14T16:06:11;4.30;99.90
6375;DHT22;35400;45.472;-122.822;2023-03-14T16:08:39;4.50;99.90
6375;DHT22;35400;45.472;-122.822;2023-03-14T16:11:06;4.70;99.90
6375;DHT22;35400;45.472;-122.822;2023-03-14T16:13:32;4.90;99.90
6375;DHT22;35400;45.472;-122.822;2023-03-14T16:16:01;5.10;99.90
6375;DHT22;35400;45.472;-122.822;2023-03-14T16:18:31;5.20;99.90
6375;DHT22;35400;45.472;-122.822;2023-03-14T16:21:04;5.40;99.90
6375;DHT22;35400;45.472;-122.822;2023-03-14T16:23:35;5.60;99.90
6375;DHT22;35400;45.472;-122.822;2023-03-14T16:26:10;5.80;99.90
6375;DHT22;35400;45.472;-122.822;2023-03-14T16:28:37;5.90;99.90
6375;DHT22;35400;45.472;-122.822;2023-03-14T16:31:09;6.00;99.90
6375;DHT22;35400;45.472;-122.822;2023-03-14T16:33:38;6.20;99.90
6375;DHT22;35400;45.472;-122.822;2023-03-14T16:36:07;6.50;99.90
6375;DHT22;35400;45.472;-122.822;2023-03-14T16:38:35;6.70;99.90
6375;DHT22;35400;45.472;-122.822;2023-03-14T16:41:06;7.00;99.90
6375;DHT22;35400;45.472;-122.822;2023-03-14T16:43:33;7.20;99.90
6375;DHT22;35400;45.472;-122.822;2023-03-14T16:46:03;7.50;99.90
6375;DHT22;35400;45.472;-122.822;2023-03-14T16:48:31;7.70;99.90
6375;DHT22;35400;45.472;-122.822;2023-03-14T16:50:57;7.70;99.90
6375;DHT22;35400;45.472;-122.822;2023-03-14T16:53:25;7.70;99.90
6375;DHT22;35400;45.472;-122.822;2023-03-14T16:55:56;7.90;99.90
6375;DHT22;35400;45.472;-122.822;2023-03-14T16:58:23;8.00;99.90
6375;DHT22;35400;45.472;-122.822;2023-03-14T17:00:50;8.00;99.90
6375;DHT22;35400;45.472;-122.822;2023-03-14T17:03:18;8.10;99.90
6375;DHT22;35400;45.472;-122.822;2023-03-14T17:05:50;8.10;99.90
6375;DHT22;35400;45.472;-122.822;2023-03-14T17:08:18;8.10;99.90
6375;DHT22;35400;45.472;-122.822;2023-03-14T17:10:46;8.00;99.90
6375;DHT22;35400;45.472;-122.822;2023-03-14T17:13:13;8.00;99.90
6375;DHT22;35400;45.472;-122.822;2023-03-14T17:15:44;7.90;99.90
6375;DHT22;35400;45.472;-122.822;2023-03-14T17:18:12;7.90;99.90
6375;DHT22;35400;45.472;-122.822;2023-03-14T17:20:38;7.80;99.90